createdAt,value
2022-11-28T00:01:20.073Z,7.80
2022-11-28T00:03:47.377Z,7.80
2022-11-28T00:06:15.220Z,7.80
2022-11-28T00:08:42.771Z,7.70
2022-11-28T00:11:12.455Z,7.70
2022-11-28T00:13:40.171Z,7.70
2022-11-28T00:16:09.582Z,7.70
2022-11-28T00:18:36.628Z,7.70
2022-11-28T00:21:10.193Z,7.70
2022-11-28T00:23:37.578Z,7.60
2022-11-28T00:26:08.079Z,7.70
2022-11-28T00:28:35.073Z,7.70
2022-11-28T00:31:02.220Z,7.60
2022-11-28T00:33:29.285Z,7.70
2022-11-28T00:36:04.279Z,7.70
2022-11-28T00:38:32.077Z,7.70
2022-11-28T00:41:15.997Z,7.70
2022-11-28T00:43:44.843Z,7.70
2022-11-28T00:46:13.578Z,7.60
2022-11-28T00:48:41.233Z,7.60
2022-11-28T00:51:14.432Z,7.60
2022-11-28T00:53:42.719Z,7.60
2022-11-28T00:56:15.082Z,7.60
2022-11-28T00:58:42.946Z,7.50
2022-11-28T01:01:11.921Z,7.60
2022-11-28T01:03:39.926Z,7.50
2022-11-28T01:06:08.123Z,7.50
2022-11-28T01:08:35.527Z,7.50
2022-11-28T01:11:03.230Z,7.40
2022-11-28T01:13:30.639Z,7.40
2022-11-28T01:15:58.847Z,7.40
2022-11-28T01:18:25.955Z,7.40
2022-11-28T01:20:52.939Z,7.40
2022-11-28T01:23:20.437Z,7.40
2022-11-28T01:25:47.476Z,7.40
2022-11-28T01:28:14.648Z,7.40
2022-11-28T01:30:41.763Z,7.30
2022-11-28T01:33:08.726Z,7.30
2022-11-28T01:35:35.778Z,7.30
2022-11-28T01:38:02.743Z,7.30
2022-11-28T01:40:29.924Z,7.30
2022-11-28T01:42:56.910Z,7.30
2022-11-28T01:45:33.580Z,7.30
2022-11-28T01:48:03.913Z,7.30
2022-11-28T01:50:33.189Z,7.30
2022-11-28T01:53:03.825Z,7.30
2022-11-28T01:55:35.593Z,7.30
2022-11-28T01:58:02.707Z,7.40
2022-11-28T02:00:29.908Z,7.40
2022-11-28T02:03:19.042Z,7.40
2022-11-28T02:05:47.552Z,7.40
2022-11-28T02:08:14.563Z,7.40
2022-11-28T02:10:50.520Z,7.50
2022-11-28T02:13:36.118Z,7.50
2022-11-28T02:16:30.588Z,7.50
2022-11-28T02:19:12.678Z,7.40
2022-11-28T02:22:19.343Z,7.50
2022-11-28T02:25:14.645Z,7.50
2022-11-28T02:28:20.602Z,7.50
2022-11-28T02:31:08.741Z,7.40
2022-11-28T02:33:59.657Z,7.40
2022-11-28T02:36:42.385Z,7.40
2022-11-28T02:39:31.442Z,7.40
2022-11-28T02:42:10.624Z,7.40
2022-11-28T02:45:06.862Z,7.30
2022-11-28T02:47:37.963Z,7.30
2022-11-28T02:50:47.674Z,7.30
2022-11-28T02:53:20.171Z,7.30
2022-11-28T02:55:48.850Z,7.30
2022-11-28T02:58:15.936Z,7.30
2022-11-28T03:00:45.641Z,7.30
2022-11-28T03:03:39.582Z,7.30
2022-11-28T03:06:19.149Z,7.30
2022-11-28T03:09:23.627Z,7.30
2022-11-28T03:12:08.345Z,7.30
2022-11-28T03:14:38.134Z,7.40
2022-11-28T03:17:44.405Z,7.40
2022-11-28T03:20:43.479Z,7.40
2022-11-28T03:23:21.447Z,7.40
2022-11-28T03:26:05.983Z,7.40
2022-11-28T03:28:45.368Z,7.40
2022-11-28T03:31:29.697Z,7.40
2022-11-28T03:33:59.683Z,7.40
2022-11-28T03:36:39.097Z,7.40
2022-11-28T03:39:11.192Z,7.50
2022-11-28T03:42:00.171Z,7.50
2022-11-28T03:44:43.040Z,7.50
2022-11-28T03:47:10.826Z,7.50
2022-11-28T03:49:42.126Z,7.50
2022-11-28T03:52:19.820Z,7.50
2022-11-28T03:55:09.917Z,7.50
2022-11-28T03:57:48.127Z,7.50
2022-11-28T04:00:16.079Z,7.50
2022-11-28T04:03:05.030Z,7.50
2022-11-28T04:05:32.170Z,7.50
2022-11-28T04:08:06.250Z,7.50
2022-11-28T04:10:38.362Z,7.40
2022-11-28T04:13:21.708Z,7.40
2022-11-28T04:16:00.928Z,7.40
2022-11-28T04:18:52.760Z,7.40
2022-11-28T04:21:34.503Z,7.40
2022-11-28T04:24:13.102Z,7.40
2022-11-28T04:26:53.114Z,7.40
2022-11-28T04:29:24.080Z,7.40
2022-11-28T04:31:56.114Z,7.40
2022-11-28T04:34:24.224Z,7.40
2022-11-28T04:36:54.192Z,7.40
2022-11-28T04:39:26.273Z,7.40
2022-11-28T04:42:02.088Z,7.30
2022-11-28T04:44:55.046Z,7.30
2022-11-28T04:47:23.077Z,7.30
2022-11-28T04:49:50.247Z,7.30
2022-11-28T04:52:27.365Z,7.30
2022-11-28T04:55:15.574Z,7.30
2022-11-28T04:57:55.707Z,7.30
2022-11-28T05:00:24.200Z,7.30
2022-11-28T05:02:53.290Z,7.30
2022-11-28T05:05:24.321Z,7.30
2022-11-28T05:07:52.429Z,7.30
2022-11-28T05:10:19.780Z,7.30
2022-11-28T05:12:46.859Z,7.30
2022-11-28T05:15:19.046Z,7.30
2022-11-28T05:17:46.977Z,7.30
2022-11-28T05:20:14.511Z,7.30
2022-11-28T05:22:41.813Z,7.30
2022-11-28T05:25:09.198Z,7.30
2022-11-28T05:27:36.430Z,7.30
2022-11-28T05:30:05.575Z,7.30
2022-11-28T05:32:33.004Z,7.30
2022-11-28T05:35:00.071Z,7.40
2022-11-28T05:37:27.273Z,7.40
2022-11-28T05:39:54.473Z,7.30
2022-11-28T05:42:21.713Z,7.30
2022-11-28T05:44:48.759Z,7.40
2022-11-28T05:47:18.507Z,7.30
2022-11-28T05:49:47.104Z,7.30
2022-11-28T05:52:13.965Z,7.30
2022-11-28T05:54:40.943Z,7.30
2022-11-28T05:57:08.240Z,7.30
2022-11-28T05:59:35.469Z,7.30
2022-11-28T06:02:02.495Z,7.30
2022-11-28T06:04:29.534Z,7.30
2022-11-28T06:06:56.541Z,7.30
2022-11-28T06:09:26.050Z,7.30
2022-11-28T06:11:53.633Z,7.30
2022-11-28T06:14:20.615Z,7.40
2022-11-28T06:16:47.613Z,7.30
2022-11-28T06:19:14.612Z,7.40
2022-11-28T06:21:41.770Z,7.30
2022-11-28T06:24:10.768Z,7.30
2022-11-28T06:26:37.741Z,7.30
2022-11-28T06:29:04.729Z,7.30
2022-11-28T06:31:31.790Z,7.30
2022-11-28T06:33:58.980Z,7.30
2022-11-28T06:36:26.644Z,7.30
2022-11-28T06:38:54.296Z,7.20
2022-11-28T06:41:22.988Z,7.20
2022-11-28T06:43:50.549Z,7.20
2022-11-28T06:46:19.649Z,7.10
2022-11-28T06:48:50.565Z,7.10
2022-11-28T06:51:18.248Z,7.10
2022-11-28T06:53:45.234Z,7.10
2022-11-28T06:56:14.852Z,7.10
2022-11-28T06:58:42.676Z,7.10
2022-11-28T07:01:11.722Z,7.10
2022-11-28T07:03:39.703Z,7.10
2022-11-28T07:06:07.488Z,7.10
2022-11-28T07:08:35.226Z,7.10
2022-11-28T07:11:09.493Z,7.10
2022-11-28T07:13:36.683Z,7.10
2022-11-28T07:16:04.432Z,7.20
2022-11-28T07:18:31.491Z,7.20
2022-11-28T07:21:00.647Z,7.30
2022-11-28T07:23:27.635Z,7.20
2022-11-28T07:26:02.222Z,7.20
2022-11-28T07:28:30.654Z,7.30
2022-11-28T07:31:19.374Z,7.30
2022-11-28T07:33:49.041Z,7.30
2022-11-28T07:36:19.451Z,7.30
2022-11-28T07:38:47.806Z,7.20
2022-11-28T07:41:15.451Z,7.30
2022-11-28T07:43:43.951Z,7.30
2022-11-28T07:46:12.475Z,7.30
2022-11-28T07:48:39.521Z,7.30
2022-11-28T07:51:12.861Z,7.30
2022-11-28T07:53:40.355Z,7.30
2022-11-28T07:56:10.865Z,7.30
2022-11-28T07:58:39.035Z,7.30
2022-11-28T08:01:18.528Z,7.30
2022-11-28T08:03:47.101Z,7.30
2022-11-28T08:06:17.127Z,7.40
2022-11-28T08:08:47.069Z,7.30
2022-11-28T08:11:15.950Z,7.40
2022-11-28T08:13:43.845Z,7.40
2022-11-28T08:16:19.769Z,7.40
2022-11-28T08:18:48.014Z,7.40
2022-11-28T08:21:23.758Z,7.40
2022-11-28T08:23:52.253Z,7.50
2022-11-28T08:26:23.047Z,7.50
2022-11-28T08:28:54.123Z,7.50
2022-11-28T08:31:27.344Z,7.50
2022-11-28T08:33:58.266Z,7.50
2022-11-28T08:36:25.337Z,7.50
2022-11-28T08:41:39.835Z,7.50
2022-11-28T08:44:07.528Z,7.50
2022-11-28T08:46:34.493Z,7.50
2022-11-28T08:49:04.671Z,7.50
2022-11-28T08:51:32.208Z,7.60
2022-11-28T08:54:00.148Z,7.60
2022-11-28T08:56:27.928Z,7.60
2022-11-28T08:58:55.775Z,7.60
2022-11-28T09:01:25.591Z,7.60
2022-11-28T09:03:54.436Z,7.60
2022-11-28T09:06:22.277Z,7.70
2022-11-28T09:08:50.605Z,7.60
2022-11-28T09:11:20.887Z,7.70
2022-11-28T09:13:47.975Z,7.70
2022-11-28T09:16:16.067Z,7.70
2022-11-28T09:18:43.157Z,7.70
2022-11-28T09:21:12.312Z,7.70
2022-11-28T09:23:41.391Z,7.70
2022-11-28T09:26:16.498Z,7.70
2022-11-28T09:28:44.119Z,7.60
2022-11-28T09:31:12.633Z,7.60
2022-11-28T09:33:40.220Z,7.60
2022-11-28T09:36:20.793Z,7.60
2022-11-28T09:38:48.246Z,7.60
2022-11-28T09:41:36.382Z,7.60
2022-11-28T09:44:16.229Z,7.60
2022-11-28T09:46:44.190Z,7.60
2022-11-28T09:49:29.704Z,7.70
2022-11-28T09:52:14.848Z,7.70
2022-11-28T09:55:05.979Z,7.70
2022-11-28T09:57:40.314Z,7.70
2022-11-28T10:00:17.391Z,7.80
2022-11-28T10:03:21.981Z,7.80
2022-11-28T10:06:09.891Z,7.80
2022-11-28T10:09:01.983Z,7.90
2022-11-28T10:11:47.614Z,7.90
2022-11-28T10:14:44.793Z,7.90
2022-11-28T10:17:20.708Z,8.00
2022-11-28T10:20:02.909Z,8.00
2022-11-28T10:22:44.707Z,8.10
2022-11-28T10:25:23.736Z,8.10
2022-11-28T10:27:51.351Z,8.20
2022-11-28T10:30:27.584Z,8.30
2022-11-28T10:33:09.901Z,8.30
2022-11-28T10:35:46.293Z,8.40
2022-11-28T10:38:16.126Z,8.40
2022-11-28T10:40:47.057Z,8.40
2022-11-28T10:43:31.963Z,8.40
2022-11-28T10:46:30.153Z,8.40
2022-11-28T10:49:03.373Z,8.40
2022-11-28T10:51:51.535Z,8.40
2022-11-28T10:54:40.517Z,8.40
2022-11-28T10:57:16.755Z,8.40
2022-11-28T11:00:01.797Z,8.40
2022-11-28T11:02:40.115Z,8.40
2022-11-28T11:05:11.745Z,8.40
2022-11-28T11:07:39.100Z,8.40
2022-11-28T11:10:25.188Z,8.40
2022-11-28T11:12:52.908Z,8.40
2022-11-28T11:15:24.861Z,8.40
2022-11-28T11:17:52.026Z,8.40
2022-11-28T11:20:36.862Z,8.40
2022-11-28T11:23:17.301Z,8.40
2022-11-28T11:25:55.147Z,8.40
2022-11-28T11:28:42.789Z,8.40
2022-11-28T11:31:39.048Z,8.40
2022-11-28T11:34:12.973Z,8.40
2022-11-28T11:36:39.993Z,8.40
2022-11-28T11:39:18.948Z,8.40
2022-11-28T11:41:51.689Z,8.40
2022-11-28T11:44:29.450Z,8.50
2022-11-28T11:47:05.669Z,8.40
2022-11-28T11:49:35.293Z,8.50
2022-11-28T11:52:24.090Z,8.50
2022-11-28T11:54:57.200Z,8.50
2022-11-28T11:57:43.133Z,8.50
2022-11-28T12:00:10.339Z,8.50
2022-11-28T12:03:04.726Z,8.50
2022-11-28T12:06:12.782Z,8.50
2022-11-28T12:09:00.632Z,8.60
2022-11-28T12:11:46.547Z,8.60
2022-11-28T12:14:32.591Z,8.60
2022-11-28T12:17:25.669Z,8.60
2022-11-28T12:20:05.329Z,8.60
2022-11-28T12:22:32.249Z,8.60
2022-11-28T12:25:04.218Z,8.60
2022-11-28T12:27:37.027Z,8.60
2022-11-28T12:30:22.009Z,8.60
2022-11-28T12:32:57.972Z,8.60
2022-11-28T12:35:38.379Z,8.60
2022-11-28T12:38:11.910Z,8.60
2022-11-28T12:41:15.055Z,8.60
2022-11-28T12:43:54.210Z,8.60
2022-11-28T12:46:39.760Z,8.70
2022-11-28T12:49:19.828Z,8.70
2022-11-28T12:52:10.924Z,8.70
2022-11-28T12:54:55.935Z,8.70
2022-11-28T12:57:43.763Z,8.70
2022-11-28T13:00:20.441Z,8.70
2022-11-28T13:03:19.108Z,8.70
2022-11-28T13:06:26.677Z,8.70
2022-11-28T13:09:03.025Z,8.70
2022-11-28T13:11:40.125Z,8.70
2022-11-28T13:14:34.544Z,8.70
2022-11-28T13:17:19.513Z,8.70
2022-11-28T13:20:13.824Z,8.70
2022-11-28T13:22:46.663Z,8.70
2022-11-28T13:25:38.743Z,8.80
2022-11-28T13:28:19.613Z,8.80
2022-11-28T13:30:55.839Z,8.70
2022-11-28T13:33:55.155Z,8.70
2022-11-28T13:39:47.127Z,8.70
2022-11-28T13:42:59.044Z,8.70
2022-11-28T13:45:32.429Z,8.70
2022-11-28T13:48:00.921Z,8.70
2022-11-28T13:50:28.156Z,8.70
2022-11-28T13:53:04.180Z,8.70
2022-11-28T13:55:46.789Z,8.70
2022-11-28T13:58:17.126Z,8.70
2022-11-28T14:00:59.952Z,8.70
2022-11-28T14:03:27.069Z,8.70
2022-11-28T14:05:57.369Z,8.70
2022-11-28T14:08:40.400Z,8.70
2022-11-28T14:11:10.513Z,8.60
2022-11-28T14:13:50.018Z,8.70
2022-11-28T14:16:26.357Z,8.60
2022-11-28T14:19:39.795Z,8.60
2022-11-28T14:22:24.891Z,8.60
2022-11-28T14:25:24.185Z,8.60
2022-11-28T14:28:14.776Z,8.60
2022-11-28T14:30:44.522Z,8.60
2022-11-28T14:33:36.936Z,8.60
2022-11-28T14:36:21.332Z,8.60
2022-11-28T14:39:00.899Z,8.60
2022-11-28T14:41:29.166Z,8.60
2022-11-28T14:44:34.925Z,8.50
2022-11-28T14:47:13.544Z,8.50
2022-11-28T14:49:40.549Z,8.50
2022-11-28T14:55:12.434Z,8.50
2022-11-28T14:58:03.259Z,8.50
2022-11-28T15:00:47.365Z,8.50
2022-11-28T15:03:17.304Z,8.60
2022-11-28T15:05:52.708Z,8.50
2022-11-28T15:09:04.865Z,8.60
2022-11-28T15:12:17.326Z,8.50
2022-11-28T15:14:51.906Z,8.50
2022-11-28T15:17:23.043Z,8.50
2022-11-28T15:19:51.081Z,8.50
2022-11-28T15:22:47.576Z,8.60
2022-11-28T15:25:23.217Z,8.50
2022-11-28T15:27:51.446Z,8.50
2022-11-28T15:30:23.751Z,8.50
2022-11-28T15:33:00.134Z,8.50
2022-11-28T15:35:28.545Z,8.50
2022-11-28T15:37:58.231Z,8.50
2022-11-28T15:40:32.485Z,8.50
2022-11-28T15:43:01.118Z,8.50
2022-11-28T15:45:32.291Z,8.40
2022-11-28T15:47:59.424Z,8.40
2022-11-28T15:50:29.553Z,8.40
2022-11-28T15:53:15.234Z,8.40
2022-11-28T15:55:43.950Z,8.30
2022-11-28T15:58:15.070Z,8.30
2022-11-28T16:00:45.373Z,8.30
2022-11-28T16:03:22.621Z,8.20
2022-11-28T16:05:52.573Z,8.20
2022-11-28T16:08:47.542Z,8.20
2022-11-28T16:11:19.858Z,8.20
2022-11-28T16:13:48.003Z,8.20
2022-11-28T16:16:28.835Z,8.20
2022-11-28T16:19:05.829Z,8.20
2022-11-28T16:21:40.153Z,8.10
2022-11-28T16:24:24.192Z,8.10
2022-11-28T16:27:00.197Z,8.10
2022-11-28T16:29:34.647Z,8.10
2022-11-28T16:32:39.991Z,8.00
2022-11-28T16:35:12.374Z,8.00
2022-11-28T16:37:39.579Z,8.00
2022-11-28T16:40:21.776Z,8.00
2022-11-28T16:43:04.355Z,8.00
2022-11-28T16:45:33.295Z,8.00
2022-11-28T16:48:09.334Z,8.00
2022-11-28T16:50:37.706Z,7.90
2022-11-28T16:53:05.458Z,7.90
2022-11-28T16:55:32.455Z,7.90
2022-11-28T16:58:07.347Z,7.90
2022-11-28T17:00:35.291Z,7.80
2022-11-28T17:03:03.503Z,7.90
2022-11-28T17:05:30.882Z,7.80
2022-11-28T17:07:58.100Z,7.80
2022-11-28T17:10:25.626Z,7.80
2022-11-28T17:12:52.633Z,7.70
2022-11-28T17:15:22.814Z,7.70
2022-11-28T17:17:49.809Z,7.70
2022-11-28T17:20:17.905Z,7.70
2022-11-28T17:22:47.764Z,7.60
2022-11-28T17:25:20.447Z,7.60
2022-11-28T17:27:48.279Z,7.60
2022-11-28T17:30:16.937Z,7.50
2022-11-28T17:32:43.949Z,7.50
2022-11-28T17:35:14.278Z,7.50
2022-11-28T17:37:41.244Z,7.50
2022-11-28T17:40:27.179Z,7.40
2022-11-28T17:42:54.239Z,7.40
2022-11-28T17:45:22.723Z,7.40
2022-11-28T17:47:49.645Z,7.40
2022-11-28T17:50:17.643Z,7.40
2022-11-28T17:52:44.776Z,7.40
2022-11-28T17:55:12.077Z,7.40
2022-11-28T17:57:39.402Z,7.40
2022-11-28T18:00:09.236Z,7.40
2022-11-28T18:02:43.368Z,7.50
2022-11-28T18:05:10.740Z,7.50
2022-11-28T18:07:39.536Z,7.50
2022-11-28T18:10:09.950Z,7.50
2022-11-28T18:12:38.220Z,7.60
2022-11-28T18:15:05.705Z,7.60
2022-11-28T18:17:33.106Z,7.60
2022-11-28T18:20:00.088Z,7.70
2022-11-28T18:22:27.876Z,7.70
2022-11-28T18:24:55.205Z,7.70
2022-11-28T18:27:22.811Z,7.70
2022-11-28T18:29:50.041Z,7.80
2022-11-28T18:32:17.317Z,7.80
2022-11-28T18:34:44.370Z,7.80
2022-11-28T18:37:11.489Z,7.80
2022-11-28T18:39:38.592Z,7.90
2022-11-28T18:42:05.928Z,7.90
2022-11-28T18:44:33.597Z,7.90
2022-11-28T18:47:00.637Z,7.90
2022-11-28T18:49:27.685Z,7.90
2022-11-28T18:51:56.797Z,7.90
2022-11-28T18:54:23.819Z,8.00
2022-11-28T18:56:50.994Z,8.00
2022-11-28T18:59:18.273Z,8.00
2022-11-28T19:01:45.253Z,8.00
2022-11-28T19:04:13.648Z,8.00
2022-11-28T19:06:41.263Z,8.00
2022-11-28T19:09:12.124Z,8.00
2022-11-28T19:11:40.542Z,8.00
2022-11-28T19:14:08.576Z,8.00
2022-11-28T19:16:37.831Z,8.00
2022-11-28T19:19:06.432Z,8.00
2022-11-28T19:21:35.953Z,8.00
2022-11-28T19:24:04.372Z,8.00
2022-11-28T19:26:34.077Z,8.00
2022-11-28T19:29:03.094Z,8.00
2022-11-28T19:31:35.510Z,8.00
2022-11-28T19:34:05.541Z,8.00
2022-11-28T19:36:41.105Z,8.00
2022-11-28T19:39:12.700Z,8.00
2022-11-28T19:41:40.210Z,8.00
2022-11-28T19:44:09.430Z,8.00
2022-11-28T19:46:36.720Z,8.00
2022-11-28T19:49:09.012Z,8.00
2022-11-28T19:51:36.109Z,8.00
2022-11-28T19:54:04.210Z,8.10
2022-11-28T19:56:33.369Z,8.10
2022-11-28T19:59:00.649Z,8.10
2022-11-28T20:01:28.404Z,8.10
2022-11-28T20:03:55.839Z,8.10
2022-11-28T20:06:28.912Z,8.10
2022-11-28T20:08:58.393Z,8.10
2022-11-28T20:11:28.647Z,8.10
2022-11-28T20:14:05.043Z,8.10
2022-11-28T20:16:33.626Z,8.10
2022-11-28T20:19:01.923Z,8.10
2022-11-28T20:21:29.801Z,8.10
2022-11-28T20:23:59.564Z,8.10
2022-11-28T20:26:27.093Z,8.10
2022-11-28T20:28:56.173Z,8.20
2022-11-28T20:31:36.542Z,8.20
2022-11-28T20:34:05.387Z,8.20
2022-11-28T20:36:33.681Z,8.20
2022-11-28T20:39:01.517Z,8.20
2022-11-28T20:41:29.273Z,8.20
2022-11-28T20:43:56.782Z,8.20
2022-11-28T20:46:32.787Z,8.20
2022-11-28T20:49:06.015Z,8.20
2022-11-28T20:51:34.789Z,8.20
2022-11-28T20:54:02.613Z,8.20
2022-11-28T20:56:31.880Z,8.20
2022-11-28T20:59:00.804Z,8.20
2022-11-28T21:01:33.276Z,8.20
2022-11-28T21:04:04.868Z,8.20
2022-11-28T21:06:32.081Z,8.20
2022-11-28T21:09:04.290Z,8.20
2022-11-28T21:11:55.636Z,8.10
2022-11-28T21:14:19.397Z,8.20
2022-11-28T21:16:46.475Z,8.10
2022-11-28T21:19:13.544Z,8.10
2022-11-28T21:21:40.868Z,8.20
2022-11-28T21:24:11.068Z,8.20
2022-11-28T21:26:43.193Z,8.20
2022-11-28T21:29:13.874Z,8.20
2022-11-28T21:31:43.457Z,8.20
2022-11-28T21:34:16.701Z,8.20
2022-11-28T21:36:44.304Z,8.20
2022-11-28T21:39:17.373Z,8.20
2022-11-28T21:41:44.840Z,8.20
2022-11-28T21:44:11.997Z,8.30
2022-11-28T21:46:39.153Z,8.30
2022-11-28T21:49:06.155Z,8.20
2022-11-28T21:51:37.754Z,8.20
2022-11-28T21:54:04.860Z,8.20
2022-11-28T21:56:32.138Z,8.20
2022-11-28T21:58:59.320Z,8.20
2022-11-28T22:01:26.544Z,8.30
2022-11-28T22:03:59.050Z,8.20
2022-11-28T22:06:29.557Z,8.20
2022-11-28T22:08:57.540Z,8.20
2022-11-28T22:11:25.361Z,8.20
2022-11-28T22:13:52.905Z,8.20
2022-11-28T22:16:26.363Z,8.20
2022-11-28T22:18:55.371Z,8.20
2022-11-28T22:24:10.619Z,8.20
2022-11-28T22:26:38.213Z,8.20
2022-11-28T22:29:05.489Z,8.20
2022-11-28T22:31:32.941Z,8.20
2022-11-28T22:34:00.128Z,8.20
2022-11-28T22:36:27.339Z,8.20
2022-11-28T22:38:55.745Z,8.20
2022-11-28T22:41:28.794Z,8.20
2022-11-28T22:44:00.828Z,8.20
2022-11-28T22:46:29.870Z,8.10
2022-11-28T22:49:02.455Z,8.10
2022-11-28T22:51:31.523Z,8.00
2022-11-28T22:54:01.254Z,8.00
2022-11-28T22:56:31.625Z,8.00
2022-11-28T22:58:59.397Z,7.90
2022-11-28T23:01:29.690Z,7.90
2022-11-28T23:03:57.222Z,7.90
2022-11-28T23:06:27.058Z,7.90
2022-11-28T23:08:55.840Z,7.90
2022-11-28T23:11:27.808Z,7.90
2022-11-28T23:13:55.391Z,7.80
2022-11-28T23:16:38.488Z,7.80
2022-11-28T23:19:10.466Z,7.80
2022-11-28T23:21:41.706Z,7.80
2022-11-28T23:24:17.579Z,7.70
2022-11-28T23:26:46.499Z,7.70
2022-11-28T23:29:14.568Z,7.70
2022-11-28T23:31:43.376Z,7.70
2022-11-28T23:34:11.253Z,7.70
2022-11-28T23:36:42.959Z,7.60
2022-11-28T23:39:14.182Z,7.60
2022-11-28T23:41:41.868Z,7.60
2022-11-28T23:44:10.817Z,7.50
2022-11-28T23:46:38.202Z,7.50
2022-11-28T23:49:05.782Z,7.50
2022-11-28T23:51:32.997Z,7.40
2022-11-28T23:54:00.087Z,7.40
2022-11-28T23:56:32.559Z,7.40
2022-11-28T23:59:01.767Z,7.40
